Time;durP1;ratioP1;P1;durP2;ratioP2;P2;SDS_P1;SDS_P2;PMS_P1;PMS_P2;Temp;Humidity;BMP_temperature;BMP_pressure;BME280_temperature;BME280_humidity;BME280_pressure;Samples;Min_cycle;Max_cycle;Signal;HPM_P1;HPM_P2
2021/06/21 00:01:00;;;;;;;11.88;6.20;;;;;;;;;;5096679;28;20078;-65
2021/06/21 00:03:26;;;;;;;10.35;5.05;;;;;;;;;;5095939;28;20048;-65
2021/06/21 00:05:52;;;;;;;11.60;5.00;;;;;;;;;;5093513;28;20051;-66
2021/06/21 00:08:18;;;;;;;11.45;4.75;;;;;;;;;;5104378;27;20071;-65
2021/06/21 00:10:44;;;;;;;10.77;4.50;;;;;;;;;;5094236;28;20039;-65
2021/06/21 00:13:11;;;;;;;12.43;4.97;;;;;;;;;;5103307;28;20044;-65
2021/06/21 00:15:37;;;;;;;12.30;5.05;;;;;;;;;;5092904;28;20055;-65
2021/06/21 00:18:03;;;;;;;9.98;4.70;;;;;;;;;;5099854;28;20153;-65
2021/06/21 00:20:30;;;;;;;13.23;5.10;;;;;;;;;;5093948;28;20072;-65
2021/06/21 00:22:56;;;;;;;12.73;4.75;;;;;;;;;;5098742;28;20046;-65
2021/06/21 00:25:23;;;;;;;10.10;5.30;;;;;;;;;;5107718;28;20119;-65
2021/06/21 00:27:50;;;;;;;9.35;4.75;;;;;;;;;;5097404;27;20036;-65
2021/06/21 00:30:17;;;;;;;6.32;5.00;;;;;;;;;;5096604;28;20103;-65
2021/06/21 00:32:44;;;;;;;10.70;4.85;;;;;;;;;;5094088;28;20039;-65
2021/06/21 00:35:11;;;;;;;11.50;4.72;;;;;;;;;;5099912;28;20555;-65
2021/06/21 00:37:37;;;;;;;8.85;4.43;;;;;;;;;;5088730;28;20040;-65
2021/06/21 00:40:05;;;;;;;11.50;5.53;;;;;;;;;;5106790;28;20502;-65
2021/06/21 00:42:31;;;;;;;10.95;5.75;;;;;;;;;;5096367;28;20086;-65
2021/06/21 00:44:57;;;;;;;10.18;5.18;;;;;;;;;;5107643;28;21480;-65
2021/06/21 00:47:23;;;;;;;11.68;5.20;;;;;;;;;;5098549;28;20035;-65
2021/06/21 00:49:50;;;;;;;12.30;5.40;;;;;;;;;;5102040;28;20498;-65
2021/06/21 00:52:17;;;;;;;10.65;5.07;;;;;;;;;;5095230;28;20441;-65
2021/06/21 00:54:45;;;;;;;9.63;6.07;;;;;;;;;;5107669;27;20123;-65
2021/06/21 00:57:11;;;;;;;9.00;4.78;;;;;;;;;;5099598;28;20047;-65
2021/06/21 00:59:38;;;;;;;8.50;5.45;;;;;;;;;;5095583;28;20063;-65
2021/06/21 01:02:04;;;;;;;9.88;5.75;;;;;;;;;;5096737;28;20135;-65
2021/06/21 01:04:31;;;;;;;13.27;5.95;;;;;;;;;;5100569;28;20066;-65
2021/06/21 01:06:57;;;;;;;9.25;5.00;;;;;;;;;;5102877;28;20049;-65
2021/06/21 01:09:24;;;;;;;9.73;4.80;;;;;;;;;;5095778;27;20031;-65
2021/06/21 01:11:55;;;;;;;11.07;5.07;;;;;;;;;;5100883;28;20042;-65
2021/06/21 01:14:36;;;;;;;9.38;4.43;;;;;;;;;;5096706;28;20046;-66
2021/06/21 01:17:02;;;;;;;11.40;4.80;;;;;;;;;;5099934;28;20040;-65
2021/06/21 01:19:40;;;;;;;10.30;4.78;;;;;;;;;;5095103;28;20127;-66
2021/06/21 01:22:09;;;;;;;9.82;4.05;;;;;;;;;;5094388;28;20047;-65
2021/06/21 01:24:35;;;;;;;9.82;4.57;;;;;;;;;;5098825;28;20040;-65
2021/06/21 01:27:31;;;;;;;7.97;4.30;;;;;;;;;;5100380;28;20051;-65
2021/06/21 01:30:03;;;;;;;7.95;4.20;;;;;;;;;;5082608;28;20060;-65
2021/06/21 01:32:41;;;;;;;9.18;4.25;;;;;;;;;;5096424;28;20040;-65
2021/06/21 01:35:10;;;;;;;12.00;4.00;;;;;;;;;;5098159;28;20040;-65
2021/06/21 01:37:36;;;;;;;7.22;4.20;;;;;;;;;;5093170;27;20051;-65
2021/06/21 01:40:05;;;;;;;6.07;3.97;;;;;;;;;;5092981;28;20035;-65
2021/06/21 01:42:32;;;;;;;11.05;3.70;;;;;;;;;;5098054;28;20121;-65
2021/06/21 01:45:01;;;;;;;7.70;3.97;;;;;;;;;;5089589;28;20058;-65
2021/06/21 01:47:27;;;;;;;9.23;4.30;;;;;;;;;;5098854;28;20040;-65
2021/06/21 01:49:55;;;;;;;6.22;3.88;;;;;;;;;;5091556;28;20088;-65
2021/06/21 01:52:21;;;;;;;6.68;3.40;;;;;;;;;;5081199;28;20436;-65
2021/06/21 01:54:55;;;;;;;6.53;3.75;;;;;;;;;;5095793;28;20028;-65
2021/06/21 01:57:25;;;;;;;8.50;3.63;;;;;;;;;;5093086;28;20032;-65
2021/06/21 01:59:53;;;;;;;6.30;3.70;;;;;;;;;;5089490;28;20574;-65
2021/06/21 02:02:21;;;;;;;6.55;3.75;;;;;;;;;;5100170;28;20143;-65
2021/06/21 02:04:48;;;;;;;6.13;3.60;;;;;;;;;;5090885;28;20051;-65
2021/06/21 02:07:16;;;;;;;7.88;3.60;;;;;;;;;;5098667;28;20530;-65
2021/06/21 02:09:43;;;;;;;9.70;3.30;;;;;;;;;;5096190;28;20054;-64
2021/06/21 02:12:09;;;;;;;5.22;3.08;;;;;;;;;;5093656;28;20048;-65
2021/06/21 02:14:36;;;;;;;5.03;3.03;;;;;;;;;;5095820;28;20048;-64
2021/06/21 02:17:02;;;;;;;6.03;2.78;;;;;;;;;;5090829;28;20490;-64
2021/06/21 02:19:30;;;;;;;4.30;2.50;;;;;;;;;;5102759;28;20067;-65
2021/06/21 02:21:57;;;;;;;8.55;2.83;;;;;;;;;;5087756;28;20028;-64
2021/06/21 02:24:24;;;;;;;6.32;2.97;;;;;;;;;;5094381;28;20040;-64
2021/06/21 02:26:51;;;;;;;6.65;3.28;;;;;;;;;;5089670;28;20089;-64
2021/06/21 02:29:19;;;;;;;6.20;2.75;;;;;;;;;;5097763;28;20062;-64
2021/06/21 02:31:45;;;;;;;6.53;2.75;;;;;;;;;;5086305;28;20044;-65
2021/06/21 02:34:11;;;;;;;7.40;3.10;;;;;;;;;;5098638;28;20040;-65
2021/06/21 02:36:37;;;;;;;8.07;3.15;;;;;;;;;;5088994;28;20055;-65
2021/06/21 02:39:05;;;;;;;6.88;2.67;;;;;;;;;;5096291;28;20036;-64
2021/06/21 02:41:31;;;;;;;4.65;3.00;;;;;;;;;;5089676;28;20488;-65
2021/06/21 02:43:57;;;;;;;6.18;2.85;;;;;;;;;;5102894;28;20031;-65
2021/06/21 02:46:24;;;;;;;8.40;2.80;;;;;;;;;;5097195;28;20042;-65
2021/06/21 02:48:50;;;;;;;5.47;2.60;;;;;;;;;;5093735;28;20036;-65
2021/06/21 02:51:20;;;;;;;6.85;3.00;;;;;;;;;;5091957;28;20043;-65
2021/06/21 02:53:46;;;;;;;8.18;3.00;;;;;;;;;;5098008;28;20040;-65
2021/06/21 02:56:24;;;;;;;6.85;2.80;;;;;;;;;;5095568;28;20123;-65
2021/06/21 02:58:51;;;;;;;6.00;2.97;;;;;;;;;;5093232;28;20404;-65
2021/06/21 03:01:19;;;;;;;7.93;2.85;;;;;;;;;;5098589;28;20123;-65
2021/06/21 03:03:47;;;;;;;5.95;2.78;;;;;;;;;;5094602;28;20027;-65
2021/06/21 03:06:14;;;;;;;7.57;3.08;;;;;;;;;;5095402;28;20093;-65
2021/06/21 03:08:41;;;;;;;6.65;3.00;;;;;;;;;;5092498;27;20046;-65
2021/06/21 03:11:08;;;;;;;6.65;3.15;;;;;;;;;;5097624;28;20476;-66
2021/06/21 03:13:36;;;;;;;5.63;2.90;;;;;;;;;;5093250;28;20471;-66
2021/06/21 03:16:02;;;;;;;6.15;3.10;;;;;;;;;;5095552;28;20107;-65
2021/06/21 03:18:29;;;;;;;4.65;3.13;;;;;;;;;;5097135;28;20112;-66
2021/06/21 03:20:57;;;;;;;8.52;3.30;;;;;;;;;;5100459;28;20140;-65
2021/06/21 03:23:24;;;;;;;7.82;3.75;;;;;;;;;;5096092;28;20028;-66
2021/06/21 03:25:54;;;;;;;6.40;2.90;;;;;;;;;;5099956;28;20104;-66
2021/06/21 03:28:21;;;;;;;8.05;3.03;;;;;;;;;;5098410;28;20441;-65
2021/06/21 03:30:50;;;;;;;6.32;3.00;;;;;;;;;;5100079;28;20039;-66
2021/06/21 03:33:16;;;;;;;6.75;2.95;;;;;;;;;;5093171;28;20051;-65
2021/06/21 03:35:42;;;;;;;3.92;2.95;;;;;;;;;;5109697;28;20075;-65
2021/06/21 03:38:10;;;;;;;8.00;3.33;;;;;;;;;;5100133;27;20048;-66
2021/06/21 03:40:36;;;;;;;7.38;3.38;;;;;;;;;;5100357;28;20062;-66
2021/06/21 03:43:02;;;;;;;7.03;3.25;;;;;;;;;;5095370;28;20060;-66
2021/06/21 03:45:28;;;;;;;7.70;3.40;;;;;;;;;;5092252;28;20094;-66
2021/06/21 03:47:54;;;;;;;7.07;3.58;;;;;;;;;;5096262;28;20036;-67
2021/06/21 03:50:21;;;;;;;8.30;4.18;;;;;;;;;;5093549;28;20032;-67
2021/06/21 03:52:47;;;;;;;10.02;4.15;;;;;;;;;;5103375;27;20064;-66
2021/06/21 03:55:14;;;;;;;7.95;4.78;;;;;;;;;;5093067;28;20479;-66
2021/06/21 03:57:42;;;;;;;10.35;4.88;;;;;;;;;;5098519;28;20395;-66
2021/06/21 04:00:10;;;;;;;9.00;5.75;;;;;;;;;;5098042;28;20527;-66
2021/06/21 04:02:36;;;;;;;12.82;6.10;;;;;;;;;;5101293;28;20409;-66
2021/06/21 04:05:03;;;;;;;10.40;6.22;;;;;;;;;;5094483;28;20510;-66
2021/06/21 04:07:29;;;;;;;10.65;6.93;;;;;;;;;;5098158;28;20043;-65
2021/06/21 04:09:55;;;;;;;11.30;7.55;;;;;;;;;;5092335;28;20464;-65
2021/06/21 04:12:23;;;;;;;14.18;8.35;;;;;;;;;;5099696;28;20055;-65
2021/06/21 04:14:50;;;;;;;14.70;7.93;;;;;;;;;;5094039;28;20044;-65
2021/06/21 04:17:16;;;;;;;16.65;8.60;;;;;;;;;;5094929;28;20047;-66
2021/06/21 04:19:43;;;;;;;10.95;8.50;;;;;;;;;;5103314;28;20059;-66
2021/06/21 04:22:09;;;;;;;15.52;8.07;;;;;;;;;;5101565;27;20047;-66
2021/06/21 04:24:35;;;;;;;11.35;8.70;;;;;;;;;;5097958;28;20050;-66
2021/06/21 04:27:02;;;;;;;15.80;8.57;;;;;;;;;;5098742;28;20110;-66
2021/06/21 04:29:28;;;;;;;19.63;9.05;;;;;;;;;;5103864;28;20054;-63
2021/06/21 04:31:54;;;;;;;15.32;8.43;;;;;;;;;;5094482;28;20093;-63
2021/06/21 04:34:20;;;;;;;14.80;6.82;;;;;;;;;;5097270;27;20066;-63
2021/06/21 04:36:46;;;;;;;13.15;7.13;;;;;;;;;;5092924;28;20032;-63
2021/06/21 04:39:15;;;;;;;11.18;5.40;;;;;;;;;;5098457;28;20135;-64
2021/06/21 04:41:42;;;;;;;13.57;6.10;;;;;;;;;;5092268;28;20043;-66
2021/06/21 04:44:28;;;;;;;12.65;5.65;;;;;;;;;;5079213;28;20050;-66
2021/06/21 04:46:54;;;;;;;13.00;7.13;;;;;;;;;;5094447;28;20611;-66
2021/06/21 04:49:20;;;;;;;10.18;5.25;;;;;;;;;;5103511;27;20031;-66
2021/06/21 04:51:46;;;;;;;11.63;5.32;;;;;;;;;;5086056;28;20108;-66
2021/06/21 04:54:14;;;;;;;12.93;5.03;;;;;;;;;;5095500;28;20044;-66
2021/06/21 04:56:40;;;;;;;14.45;5.22;;;;;;;;;;5093501;28;20115;-66
2021/06/21 04:59:06;;;;;;;9.20;4.20;;;;;;;;;;5104921;27;20047;-66
2021/06/21 05:01:33;;;;;;;9.10;4.57;;;;;;;;;;5097436;28;20032;-66
2021/06/21 05:04:05;;;;;;;10.63;4.80;;;;;;;;;;5102222;27;20044;-66
2021/06/21 05:06:37;;;;;;;8.88;4.97;;;;;;;;;;5095046;28;20116;-66
2021/06/21 05:09:04;;;;;;;8.15;4.50;;;;;;;;;;5099819;28;20039;-67
2021/06/21 05:11:31;;;;;;;9.43;5.10;;;;;;;;;;5105212;28;20108;-65
2021/06/21 05:13:57;;;;;;;11.40;5.28;;;;;;;;;;5096149;28;20073;-66
2021/06/21 05:16:24;;;;;;;13.00;5.30;;;;;;;;;;5095695;28;20295;-66
2021/06/21 05:18:50;;;;;;;7.60;4.88;;;;;;;;;;5099303;27;20079;-65
2021/06/21 05:21:16;;;;;;;10.70;4.78;;;;;;;;;;5097625;28;20028;-65
2021/06/21 05:23:42;;;;;;;11.40;5.10;;;;;;;;;;5089960;28;20043;-65
2021/06/21 05:26:08;;;;;;;12.45;5.57;;;;;;;;;;5103624;28;20032;-65
2021/06/21 05:28:34;;;;;;;11.57;5.68;;;;;;;;;;5097480;28;20047;-66
2021/06/21 05:31:01;;;;;;;11.32;5.95;;;;;;;;;;5102272;28;20130;-65
2021/06/21 05:33:27;;;;;;;11.25;5.38;;;;;;;;;;5080550;28;20035;-65
2021/06/21 05:35:53;;;;;;;7.20;3.92;;;;;;;;;;5102872;28;20048;-66
2021/06/21 05:38:19;;;;;;;8.90;4.70;;;;;;;;;;5094708;28;20047;-66
2021/06/21 05:40:45;;;;;;;9.05;4.85;;;;;;;;;;5104832;28;20044;-65
2021/06/21 05:43:12;;;;;;;9.05;4.97;;;;;;;;;;5099329;28;20058;-65
2021/06/21 05:45:38;;;;;;;14.30;5.90;;;;;;;;;;5101721;27;20066;-65
2021/06/21 05:48:05;;;;;;;9.80;5.55;;;;;;;;;;5101804;28;20036;-65
2021/06/21 05:50:31;;;;;;;6.70;4.47;;;;;;;;;;5102838;28;20127;-66
2021/06/21 05:52:57;;;;;;;7.63;4.20;;;;;;;;;;5102263;28;20689;-65
2021/06/21 05:55:24;;;;;;;12.40;4.88;;;;;;;;;;5098493;28;20039;-65
2021/06/21 05:57:53;;;;;;;12.85;5.82;;;;;;;;;;5104296;28;20058;-65
2021/06/21 06:00:20;;;;;;;9.45;5.65;;;;;;;;;;5097597;28;20154;-65
2021/06/21 06:02:46;;;;;;;14.65;6.07;;;;;;;;;;5100462;28;20672;-65
2021/06/21 06:05:13;;;;;;;10.02;6.38;;;;;;;;;;5099225;28;20044;-65
2021/06/21 06:07:39;;;;;;;7.97;5.53;;;;;;;;;;5103520;28;20113;-65
2021/06/21 06:10:06;;;;;;;11.45;5.85;;;;;;;;;;5096309;28;20036;-65
2021/06/21 06:12:32;;;;;;;16.85;6.35;;;;;;;;;;5105720;28;20086;-65
2021/06/21 06:14:58;;;;;;;10.45;5.95;;;;;;;;;;5098466;27;20055;-65
2021/06/21 06:17:25;;;;;;;8.90;5.45;;;;;;;;;;5101417;28;20042;-65
2021/06/21 06:19:51;;;;;;;10.50;5.55;;;;;;;;;;5089870;28;20122;-65
2021/06/21 06:22:17;;;;;;;10.50;6.03;;;;;;;;;;5096422;28;20036;-65
2021/06/21 06:24:43;;;;;;;12.40;6.20;;;;;;;;;;5088789;28;20056;-65
2021/06/21 06:27:09;;;;;;;11.35;5.55;;;;;;;;;;5094279;28;20513;-66
2021/06/21 06:29:35;;;;;;;10.07;6.28;;;;;;;;;;5093142;28;20035;-65
2021/06/21 06:32:02;;;;;;;12.20;6.15;;;;;;;;;;5084117;28;20506;-65
2021/06/21 06:34:29;;;;;;;12.43;5.07;;;;;;;;;;5099225;28;20487;-65
2021/06/21 06:36:55;;;;;;;12.30;5.93;;;;;;;;;;5097154;28;20047;-65
2021/06/21 06:39:22;;;;;;;9.88;5.75;;;;;;;;;;5105515;27;20044;-65
2021/06/21 06:41:48;;;;;;;12.95;6.32;;;;;;;;;;5087417;28;20093;-65
2021/06/21 06:44:14;;;;;;;10.32;5.15;;;;;;;;;;5101155;28;20040;-65
2021/06/21 06:46:41;;;;;;;9.85;5.45;;;;;;;;;;5096868;28;20050;-65
2021/06/21 06:49:07;;;;;;;11.48;5.38;;;;;;;;;;5101466;28;20039;-65
2021/06/21 06:51:50;;;;;;;7.07;4.25;;;;;;;;;;5090816;28;20040;-65
2021/06/21 06:59:44;;;;;;;12.95;4.75;;;;;;;;;;5003786;28;20121;-65
2021/06/21 07:02:21;;;;;;;11.38;4.65;;;;;;;;;;5072204;28;20510;-65
2021/06/21 07:04:47;;;;;;;10.95;5.15;;;;;;;;;;5099705;28;20448;-69
2021/06/21 07:07:14;;;;;;;9.35;4.50;;;;;;;;;;5087955;28;20043;-65
2021/06/21 07:09:40;;;;;;;11.00;5.32;;;;;;;;;;5093569;28;20433;-65
2021/06/21 07:12:07;;;;;;;10.07;4.70;;;;;;;;;;5099426;28;20036;-66
2021/06/21 07:14:33;;;;;;;8.38;3.78;;;;;;;;;;5103553;28;20135;-65
2021/06/21 07:16:59;;;;;;;10.40;4.20;;;;;;;;;;5098528;28;20040;-65
2021/06/21 07:19:26;;;;;;;9.95;3.45;;;;;;;;;;5103645;28;20460;-66
2021/06/21 07:21:52;;;;;;;9.45;4.30;;;;;;;;;;5090275;28;20097;-66
2021/06/21 07:24:19;;;;;;;7.78;3.55;;;;;;;;;;5093181;28;20056;-66
2021/06/21 07:26:46;;;;;;;9.75;4.25;;;;;;;;;;5090269;28;20047;-66
2021/06/21 07:29:12;;;;;;;15.60;4.68;;;;;;;;;;5086014;28;20089;-66
2021/06/21 07:31:38;;;;;;;8.88;4.25;;;;;;;;;;5093103;28;20028;-66
2021/06/21 07:34:05;;;;;;;12.23;3.95;;;;;;;;;;5095104;28;20483;-66
2021/06/21 07:36:31;;;;;;;7.70;3.83;;;;;;;;;;5089998;28;20032;-66
2021/06/21 07:38:57;;;;;;;5.75;3.72;;;;;;;;;;5088774;28;20064;-66
2021/06/21 07:41:23;;;;;;;6.57;4.00;;;;;;;;;;5095204;28;20324;-66
2021/06/21 07:43:50;;;;;;;6.88;3.55;;;;;;;;;;5097194;27;20035;-65
2021/06/21 07:46:16;;;;;;;7.82;4.22;;;;;;;;;;5094069;28;20452;-66
2021/06/21 07:48:43;;;;;;;6.97;4.15;;;;;;;;;;5093993;28;20052;-66
2021/06/21 07:51:10;;;;;;;7.15;2.95;;;;;;;;;;5097140;28;20237;-67
2021/06/21 07:53:38;;;;;;;7.93;3.58;;;;;;;;;;5095234;28;20052;-66
2021/06/21 07:56:08;;;;;;;7.80;4.55;;;;;;;;;;5105451;28;20111;-66
2021/06/21 07:58:36;;;;;;;6.93;3.33;;;;;;;;;;5097066;27;20088;-67
2021/06/21 08:01:02;;;;;;;7.40;4.40;;;;;;;;;;5094418;28;20031;-67
2021/06/21 08:03:29;;;;;;;10.60;3.88;;;;;;;;;;5090070;28;20044;-67
2021/06/21 08:05:55;;;;;;;7.32;3.72;;;;;;;;;;5105743;28;20051;-67
2021/06/21 08:08:22;;;;;;;10.85;3.90;;;;;;;;;;5102591;28;20048;-66
2021/06/21 08:10:48;;;;;;;6.22;3.38;;;;;;;;;;5093889;28;20036;-66
2021/06/21 08:13:14;;;;;;;12.52;3.78;;;;;;;;;;5101694;27;20032;-66
2021/06/21 08:15:40;;;;;;;9.32;3.78;;;;;;;;;;5093347;27;20881;-66
2021/06/21 08:18:07;;;;;;;7.38;4.00;;;;;;;;;;5092364;28;20050;-66
2021/06/21 08:20:33;;;;;;;9.10;3.80;;;;;;;;;;5091392;27;20039;-66
2021/06/21 08:23:00;;;;;;;10.68;3.90;;;;;;;;;;5101691;27;20049;-66
2021/06/21 08:25:26;;;;;;;14.55;3.75;;;;;;;;;;5093903;28;20082;-66
2021/06/21 08:27:52;;;;;;;10.35;3.80;;;;;;;;;;5105178;27;20450;-65
2021/06/21 08:30:19;;;;;;;12.63;3.45;;;;;;;;;;5098192;27;20162;-66
2021/06/21 08:32:45;;;;;;;10.30;3.78;;;;;;;;;;5099531;27;20070;-66
2021/06/21 08:35:11;;;;;;;8.55;3.97;;;;;;;;;;5092579;28;20051;-66
2021/06/21 08:37:38;;;;;;;11.73;3.95;;;;;;;;;;5098133;27;20044;-66
2021/06/21 08:40:05;;;;;;;8.52;3.88;;;;;;;;;;5087216;28;20036;-66
2021/06/21 08:42:31;;;;;;;8.43;4.30;;;;;;;;;;5101021;27;20039;-66
2021/06/21 08:44:58;;;;;;;13.88;4.53;;;;;;;;;;5096269;27;20081;-66
2021/06/21 08:47:24;;;;;;;11.45;5.07;;;;;;;;;;5098108;27;22516;-66
2021/06/21 08:49:50;;;;;;;16.85;4.95;;;;;;;;;;5100447;28;20123;-66
2021/06/21 08:52:18;;;;;;;9.23;3.88;;;;;;;;;;5088376;27;20468;-66
2021/06/21 08:54:44;;;;;;;11.25;4.35;;;;;;;;;;5110134;28;20039;-66
2021/06/21 08:57:11;;;;;;;20.08;5.35;;;;;;;;;;5093647;28;20425;-66
2021/06/21 08:59:41;;;;;;;10.90;4.35;;;;;;;;;;5095310;28;20048;-66
2021/06/21 09:02:07;;;;;;;10.57;4.10;;;;;;;;;;5081304;28;20036;-66
2021/06/21 09:04:38;;;;;;;11.30;3.58;;;;;;;;;;5099921;28;20093;-66
2021/06/21 09:07:14;;;;;;;15.18;4.68;;;;;;;;;;5094175;27;20041;-66
2021/06/21 09:09:41;;;;;;;11.05;4.07;;;;;;;;;;5097514;28;20524;-66
2021/06/21 09:12:07;;;;;;;10.05;3.70;;;;;;;;;;5097558;27;20044;-66
2021/06/21 09:14:35;;;;;;;12.93;4.60;;;;;;;;;;5094868;28;20078;-66
2021/06/21 09:17:03;;;;;;;7.85;3.20;;;;;;;;;;5094427;28;20499;-66
2021/06/21 09:19:29;;;;;;;10.85;3.92;;;;;;;;;;5106799;27;20044;-66
2021/06/21 09:21:55;;;;;;;9.50;3.92;;;;;;;;;;5097091;27;20044;-66
2021/06/21 09:24:26;;;;;;;10.02;4.28;;;;;;;;;;5102752;27;20468;-66
2021/06/21 09:26:59;;;;;;;7.85;3.38;;;;;;;;;;5083909;28;20046;-67
2021/06/21 09:29:36;;;;;;;6.95;3.63;;;;;;;;;;5096333;27;20032;-66
2021/06/21 09:32:02;;;;;;;8.75;4.18;;;;;;;;;;5089062;28;20086;-66
2021/06/21 09:34:29;;;;;;;12.02;4.20;;;;;;;;;;5092085;28;20135;-65
2021/06/21 09:36:56;;;;;;;6.00;2.90;;;;;;;;;;5091813;28;20491;-66
2021/06/21 09:39:22;;;;;;;7.00;3.13;;;;;;;;;;5100235;28;20036;-66
2021/06/21 09:42:07;;;;;;;8.15;3.80;;;;;;;;;;5092090;28;20050;-66
2021/06/21 09:44:33;;;;;;;;;;;;;;;;;;5097044;28;20111;-66
2021/06/21 09:47:12;;;;;;;9.55;3.22;;;;;;;;;;5100633;28;19924;-66
2021/06/21 09:49:38;;;;;;;9.43;3.28;;;;;;;;;;5090159;28;20040;-66
2021/06/21 09:52:05;;;;;;;6.22;2.70;;;;;;;;;;5091689;28;20032;-66
2021/06/21 09:54:34;;;;;;;7.43;3.30;;;;;;;;;;5098763;28;20046;-66
2021/06/21 09:57:12;;;;;;;9.10;3.78;;;;;;;;;;5094147;28;20040;-65
2021/06/21 09:59:46;;;;;;;8.18;3.15;;;;;;;;;;5092323;27;20128;-65
2021/06/21 10:02:17;;;;;;;9.68;3.30;;;;;;;;;;5101555;28;20046;-65
2021/06/21 10:04:44;;;;;;;6.43;2.70;;;;;;;;;;5093327;28;20399;-65
2021/06/21 10:07:29;;;;;;;5.38;2.30;;;;;;;;;;5102029;27;20071;-65
2021/06/21 10:09:58;;;;;;;5.95;2.08;;;;;;;;;;5089133;28;20039;-67
2021/06/21 10:12:24;;;;;;;5.30;2.33;;;;;;;;;;5106051;27;20403;-65
2021/06/21 10:14:50;;;;;;;7.03;2.80;;;;;;;;;;5094329;28;20039;-66
2021/06/21 10:17:17;;;;;;;4.22;1.45;;;;;;;;;;5090474;28;20027;-66
2021/06/21 10:19:43;;;;;;;4.30;1.50;;;;;;;;;;5092823;27;20476;-65
2021/06/21 10:22:09;;;;;;;8.80;2.08;;;;;;;;;;5101809;28;20063;-66
2021/06/21 10:24:36;;;;;;;10.45;2.22;;;;;;;;;;5087044;28;20377;-66
2021/06/21 10:27:05;;;;;;;5.10;2.10;;;;;;;;;;5099720;28;20044;-66
2021/06/21 10:29:32;;;;;;;6.57;2.15;;;;;;;;;;5090155;28;20484;-66
2021/06/21 10:31:59;;;;;;;8.90;2.22;;;;;;;;;;5093884;28;20127;-66
2021/06/21 10:34:26;;;;;;;6.65;1.55;;;;;;;;;;5092705;28;20110;-66
2021/06/21 10:36:53;;;;;;;5.53;2.05;;;;;;;;;;5093775;28;20032;-66
2021/06/21 10:39:19;;;;;;;5.32;1.63;;;;;;;;;;5097751;28;20042;-66
2021/06/21 10:42:05;;;;;;;5.57;1.88;;;;;;;;;;5092288;28;20036;-65
2021/06/21 10:44:42;;;;;;;5.70;2.30;;;;;;;;;;5094214;28;20238;-65
2021/06/21 10:47:24;;;;;;;7.75;2.40;;;;;;;;;;5096112;28;20058;-65
2021/06/21 10:50:13;;;;;;;5.05;2.05;;;;;;;;;;5093273;27;20036;-65
2021/06/21 10:52:41;;;;;;;6.35;2.10;;;;;;;;;;5092359;28;20052;-65
2021/06/21 10:55:23;;;;;;;8.82;2.22;;;;;;;;;;5097880;28;20042;-65
2021/06/21 10:57:50;;;;;;;4.85;1.85;;;;;;;;;;5100754;28;20071;-65
2021/06/21 11:00:18;;;;;;;3.88;1.92;;;;;;;;;;5092326;28;20415;-66
2021/06/21 11:02:44;;;;;;;7.55;2.80;;;;;;;;;;5104446;28;20040;-65
2021/06/21 11:05:11;;;;;;;6.25;1.95;;;;;;;;;;5099567;28;20337;-66
2021/06/21 11:07:37;;;;;;;3.55;1.70;;;;;;;;;;5093381;28;20035;-66
2021/06/21 11:10:07;;;;;;;4.88;1.73;;;;;;;;;;5100617;28;20047;-66
2021/06/21 11:12:33;;;;;;;4.97;1.70;;;;;;;;;;5091554;28;20047;-66
2021/06/21 11:15:06;;;;;;;5.80;2.13;;;;;;;;;;5101825;28;20127;-66
2021/06/21 11:17:53;;;;;;;8.45;2.10;;;;;;;;;;5098524;28;20038;-65
2021/06/21 11:20:40;;;;;;;4.60;1.98;;;;;;;;;;5099125;28;20044;-66
2021/06/21 11:23:07;;;;;;;5.90;1.95;;;;;;;;;;5099090;27;20145;-65
2021/06/21 11:25:41;;;;;;;7.30;1.98;;;;;;;;;;5100035;28;20051;-65
2021/06/21 11:28:07;;;;;;;8.67;2.80;;;;;;;;;;5095517;27;20371;-65
2021/06/21 11:30:35;;;;;;;7.35;2.40;;;;;;;;;;5093529;28;20557;-65
2021/06/21 11:33:19;;;;;;;5.15;1.88;;;;;;;;;;5095057;27;20137;-65
2021/06/21 11:35:46;;;;;;;7.07;1.80;;;;;;;;;;5100914;28;20090;-65
2021/06/21 11:38:23;;;;;;;7.72;2.33;;;;;;;;;;5094530;28;20753;-65
2021/06/21 11:40:49;;;;;;;5.93;1.38;;;;;;;;;;5099559;28;20040;-66
2021/06/21 11:43:16;;;;;;;6.93;1.75;;;;;;;;;;5091984;28;20126;-66
2021/06/21 11:45:59;;;;;;;5.50;1.60;;;;;;;;;;5108741;28;20415;-65
2021/06/21 11:48:36;;;;;;;7.00;1.55;;;;;;;;;;5094489;28;20126;-65
2021/06/21 11:51:11;;;;;;;8.40;2.00;;;;;;;;;;5103728;27;20131;-65
2021/06/21 11:53:40;;;;;;;6.85;1.80;;;;;;;;;;5090692;28;20044;-65
2021/06/21 11:56:06;;;;;;;7.93;1.83;;;;;;;;;;5104007;28;20036;-66
2021/06/21 11:58:33;;;;;;;5.03;1.80;;;;;;;;;;5093006;28;20042;-66
2021/06/21 12:01:00;;;;;;;4.30;1.50;;;;;;;;;;5098063;27;20040;-67
2021/06/21 12:03:30;;;;;;;5.47;2.22;;;;;;;;;;5100364;28;20046;-66
2021/06/21 12:05:56;;;;;;;7.60;1.88;;;;;;;;;;5096400;28;20052;-66
2021/06/21 12:08:23;;;;;;;7.13;1.95;;;;;;;;;;5094215;28;20395;-67
2021/06/21 12:10:50;;;;;;;5.25;1.70;;;;;;;;;;5104371;28;20414;-67
2021/06/21 12:13:19;;;;;;;5.53;1.58;;;;;;;;;;5093687;27;20503;-66
2021/06/21 12:15:46;;;;;;;5.28;1.50;;;;;;;;;;5099137;28;20032;-66
2021/06/21 12:18:12;;;;;;;7.53;1.73;;;;;;;;;;5094423;27;20062;-66
2021/06/21 12:20:38;;;;;;;4.35;1.58;;;;;;;;;;5105645;27;20039;-66
2021/06/21 12:23:06;;;;;;;3.70;1.83;;;;;;;;;;5101469;28;20046;-66
2021/06/21 12:25:42;;;;;;;5.22;1.67;;;;;;;;;;5093538;28;20043;-66
2021/06/21 12:28:29;;;;;;;5.93;1.88;;;;;;;;;;5105608;27;20411;-65
2021/06/21 12:30:56;;;;;;;7.50;2.05;;;;;;;;;;5099809;28;20036;-65
2021/06/21 12:33:28;;;;;;;7.38;1.65;;;;;;;;;;5103060;28;20063;-65
2021/06/21 12:36:09;;;;;;;4.28;1.90;;;;;;;;;;5092920;27;20444;-65
2021/06/21 12:38:36;;;;;;;7.57;1.60;;;;;;;;;;5102361;28;20067;-66
2021/06/21 12:41:19;;;;;;;6.80;1.77;;;;;;;;;;5101830;27;20044;-65
2021/06/21 12:43:52;;;;;;;6.00;1.80;;;;;;;;;;5105976;27;20045;-66
2021/06/21 12:46:19;;;;;;;6.40;2.30;;;;;;;;;;5097449;27;20036;-65
2021/06/21 12:48:46;;;;;;;5.60;1.90;;;;;;;;;;5108861;28;20089;-65
2021/06/21 12:51:13;;;;;;;5.80;1.83;;;;;;;;;;5095358;28;20039;-65
2021/06/21 12:53:43;;;;;;;4.32;1.90;;;;;;;;;;5100535;27;21448;-65
2021/06/21 12:56:18;;;;;;;4.13;2.15;;;;;;;;;;5097450;27;20067;-68
2021/06/21 12:58:44;;;;;;;7.38;2.25;;;;;;;;;;5094547;28;20040;-65
2021/06/21 13:01:20;;;;;;;8.05;2.13;;;;;;;;;;5093486;27;20056;-65
2021/06/21 13:03:46;;;;;;;5.35;2.20;;;;;;;;;;5096712;28;20045;-66
2021/06/21 13:06:12;;;;;;;5.47;2.13;;;;;;;;;;5098353;27;20039;-65
2021/06/21 13:08:39;;;;;;;5.93;2.58;;;;;;;;;;5104512;28;20089;-65
2021/06/21 13:11:07;;;;;;;5.63;1.88;;;;;;;;;;5098050;27;20093;-65
2021/06/21 13:13:38;;;;;;;8.88;2.38;;;;;;;;;;5102225;28;20040;-65
2021/06/21 13:16:12;;;;;;;7.40;2.20;;;;;;;;;;5093781;28;20062;-65
2021/06/21 13:18:50;;;;;;;5.30;2.03;;;;;;;;;;5105533;28;20509;-65
2021/06/21 13:21:16;;;;;;;4.82;1.90;;;;;;;;;;5095515;28;20054;-65
2021/06/21 13:23:50;;;;;;;6.65;2.03;;;;;;;;;;5102459;27;20032;-65
2021/06/21 13:26:16;;;;;;;6.93;2.03;;;;;;;;;;5099548;28;20085;-65
2021/06/21 13:28:43;;;;;;;6.35;2.45;;;;;;;;;;5101904;28;20285;-65
2021/06/21 13:31:13;;;;;;;6.80;2.42;;;;;;;;;;5098900;27;20115;-66
2021/06/21 13:33:46;;;;;;;4.68;1.95;;;;;;;;;;5103541;28;20048;-65
2021/06/21 13:36:13;;;;;;;5.47;1.92;;;;;;;;;;5099458;28;20043;-65
2021/06/21 13:38:39;;;;;;;3.88;1.67;;;;;;;;;;5103952;28;20092;-63
2021/06/21 13:41:18;;;;;;;8.18;2.08;;;;;;;;;;5099318;28;20047;-64
2021/06/21 13:43:44;;;;;;;6.70;2.28;;;;;;;;;;5096892;28;20044;-65
2021/06/21 13:46:11;;;;;;;9.98;2.50;;;;;;;;;;5097184;27;20043;-65
2021/06/21 13:48:38;;;;;;;6.80;2.50;;;;;;;;;;5092650;27;20479;-65
2021/06/21 13:51:14;;;;;;;6.10;2.10;;;;;;;;;;5102323;27;20047;-65
2021/06/21 13:53:40;;;;;;;6.68;2.33;;;;;;;;;;5088546;28;20496;-65
2021/06/21 13:56:11;;;;;;;6.40;2.00;;;;;;;;;;5100120;27;20360;-64
2021/06/21 13:58:39;;;;;;;5.45;1.98;;;;;;;;;;5099694;27;20058;-63
2021/06/21 14:01:18;;;;;;;5.57;1.80;;;;;;;;;;5101212;28;20049;-64
2021/06/21 14:03:48;;;;;;;4.80;2.05;;;;;;;;;;5095235;27;20280;-63
2021/06/21 14:06:15;;;;;;;5.63;1.77;;;;;;;;;;5101353;27;20040;-64
2021/06/21 14:08:42;;;;;;;6.95;1.98;;;;;;;;;;5098696;27;20068;-64
2021/06/21 14:11:09;;;;;;;5.57;2.42;;;;;;;;;;5099590;27;20039;-64
2021/06/21 14:13:38;;;;;;;8.85;2.58;;;;;;;;;;5098299;27;20074;-64
2021/06/21 14:16:06;;;;;;;8.15;2.72;;;;;;;;;;5099567;28;20487;-63
2021/06/21 14:18:32;;;;;;;12.43;2.63;;;;;;;;;;5095416;27;20044;-63
2021/06/21 14:20:59;;;;;;;9.02;2.90;;;;;;;;;;5095804;28;20044;-63
2021/06/21 14:23:26;;;;;;;6.75;3.05;;;;;;;;;;5091586;27;20035;-63
2021/06/21 14:25:52;;;;;;;7.85;3.33;;;;;;;;;;5095344;28;20040;-63
2021/06/21 14:28:18;;;;;;;8.70;3.65;;;;;;;;;;5090348;28;20035;-64
2021/06/21 14:30:45;;;;;;;14.60;4.05;;;;;;;;;;5094729;28;20049;-63
2021/06/21 14:33:11;;;;;;;7.55;3.42;;;;;;;;;;5103869;27;20481;-64
2021/06/21 14:35:38;;;;;;;10.25;3.97;;;;;;;;;;5097450;28;20096;-64
2021/06/21 14:38:04;;;;;;;9.60;4.07;;;;;;;;;;5104413;27;20028;-63
2021/06/21 14:40:30;;;;;;;12.50;3.33;;;;;;;;;;5092564;28;20039;-65
2021/06/21 14:42:56;;;;;;;8.23;3.60;;;;;;;;;;5099511;28;20446;-66
2021/06/21 14:45:23;;;;;;;9.23;3.25;;;;;;;;;;5089755;28;20035;-66
2021/06/21 14:47:49;;;;;;;7.78;4.07;;;;;;;;;;5093975;28;20044;-65
2021/06/21 14:50:16;;;;;;;9.25;3.60;;;;;;;;;;5093798;28;20028;-65